sensor_id;sensor_type;location;lat;lon;timestamp;temperature;humidity
20759;DHT22;10539;53.686;9.158;2022-09-16T00:00:19;13.50;99.90
20759;DHT22;10539;53.686;9.158;2022-09-16T00:02:45;13.50;99.90
20759;DHT22;10539;53.686;9.158;2022-09-16T00:05:10;13.50;99.90
20759;DHT22;10539;53.686;9.158;2022-09-16T00:07:36;13.50;99.90
20759;DHT22;10539;53.686;9.158;2022-09-16T00:10:03;13.50;99.90
20759;DHT22;10539;53.686;9.158;2022-09-16T00:12:29;13.50;99.90
20759;DHT22;10539;53.686;9.158;2022-09-16T00:14:55;13.50;99.90
20759;DHT22;10539;53.686;9.158;2022-09-16T00:17:21;13.40;99.90
20759;DHT22;10539;53.686;9.158;2022-09-16T00:19:47;13.40;99.90
20759;DHT22;10539;53.686;9.158;2022-09-16T00:22:15;13.40;99.90
20759;DHT22;10539;53.686;9.158;2022-09-16T00:24:41;13.30;99.90
20759;DHT22;10539;53.686;9.158;2022-09-16T00:27:07;13.30;99.90
20759;DHT22;10539;53.686;9.158;2022-09-16T00:29:34;13.20;99.90
20759;DHT22;10539;53.686;9.158;2022-09-16T00:32:00;13.20;99.90
20759;DHT22;10539;53.686;9.158;2022-09-16T00:34:25;13.10;99.90
20759;DHT22;10539;53.686;9.158;2022-09-16T00:36:51;13.10;99.90
20759;DHT22;10539;53.686;9.158;2022-09-16T00:39:16;13.10;99.90
20759;DHT22;10539;53.686;9.158;2022-09-16T00:41:42;13.10;99.90
20759;DHT22;10539;53.686;9.158;2022-09-16T00:47:13;13.10;99.90
20759;DHT22;10539;53.686;9.158;2022-09-16T00:49:41;13.10;99.90
20759;DHT22;10539;53.686;9.158;2022-09-16T00:52:08;13.10;99.90
20759;DHT22;10539;53.686;9.158;2022-09-16T00:54:35;13.10;99.90
20759;DHT22;10539;53.686;9.158;2022-09-16T00:57:03;13.20;99.90
20759;DHT22;10539;53.686;9.158;2022-09-16T00:59:32;13.20;99.90
20759;DHT22;10539;53.686;9.158;2022-09-16T01:02:11;13.10;99.90
20759;DHT22;10539;53.686;9.158;2022-09-16T01:05:07;13.10;99.90
20759;DHT22;10539;53.686;9.158;2022-09-16T01:07:42;13.10;99.90
20759;DHT22;10539;53.686;9.158;2022-09-16T01:10:08;13.10;99.90
20759;DHT22;10539;53.686;9.158;2022-09-16T01:12:35;13.10;99.90
20759;DHT22;10539;53.686;9.158;2022-09-16T01:15:02;13.10;99.90
20759;DHT22;10539;53.686;9.158;2022-09-16T01:17:59;13.10;99.90
20759;DHT22;10539;53.686;9.158;2022-09-16T01:24:43;13.10;99.90
20759;DHT22;10539;53.686;9.158;2022-09-16T01:40:07;13.20;99.90
20759;DHT22;10539;53.686;9.158;2022-09-16T01:45:38;13.10;99.90
20759;DHT22;10539;53.686;9.158;2022-09-16T01:48:08;13.10;99.90
20759;DHT22;10539;53.686;9.158;2022-09-16T01:51:01;13.10;99.90
20759;DHT22;10539;53.686;9.158;2022-09-16T01:53:41;13.10;99.90
20759;DHT22;10539;53.686;9.158;2022-09-16T01:56:25;13.10;99.90
20759;DHT22;10539;53.686;9.158;2022-09-16T02:01:35;13.10;99.90
20759;DHT22;10539;53.686;9.158;2022-09-16T02:04:11;13.10;99.90
20759;DHT22;10539;53.686;9.158;2022-09-16T02:06:39;13.10;99.90
20759;DHT22;10539;53.686;9.158;2022-09-16T02:09:11;13.00;99.90
20759;DHT22;10539;53.686;9.158;2022-09-16T02:11:38;13.00;99.90
20759;DHT22;10539;53.686;9.158;2022-09-16T02:14:21;13.00;99.90
20759;DHT22;10539;53.686;9.158;2022-09-16T02:17:09;13.00;99.90
20759;DHT22;10539;53.686;9.158;2022-09-16T02:19:42;13.00;99.90
20759;DHT22;10539;53.686;9.158;2022-09-16T02:22:18;13.00;99.90
20759;DHT22;10539;53.686;9.158;2022-09-16T02:24:46;13.00;99.90
20759;DHT22;10539;53.686;9.158;2022-09-16T02:27:15;13.00;99.90
20759;DHT22;10539;53.686;9.158;2022-09-16T02:29:53;13.00;99.90
20759;DHT22;10539;53.686;9.158;2022-09-16T02:32:22;12.90;99.90
20759;DHT22;10539;53.686;9.158;2022-09-16T02:34:50;12.90;99.90
20759;DHT22;10539;53.686;9.158;2022-09-16T02:39:48;12.90;99.90
20759;DHT22;10539;53.686;9.158;2022-09-16T02:42:15;12.80;99.90
20759;DHT22;10539;53.686;9.158;2022-09-16T02:44:41;12.80;99.90
20759;DHT22;10539;53.686;9.158;2022-09-16T02:47:09;12.80;99.90
20759;DHT22;10539;53.686;9.158;2022-09-16T02:49:42;12.70;99.90
20759;DHT22;10539;53.686;9.158;2022-09-16T02:54:56;12.70;99.90
20759;DHT22;10539;53.686;9.158;2022-09-16T02:57:25;12.70;99.90
20759;DHT22;10539;53.686;9.158;2022-09-16T02:59:52;12.70;99.90
20759;DHT22;10539;53.686;9.158;2022-09-16T03:02:17;12.70;99.90
20759;DHT22;10539;53.686;9.158;2022-09-16T03:04:44;12.70;99.90
20759;DHT22;10539;53.686;9.158;2022-09-16T03:07:10;12.70;99.90
20759;DHT22;10539;53.686;9.158;2022-09-16T03:09:39;12.70;99.90
20759;DHT22;10539;53.686;9.158;2022-09-16T03:17:44;12.70;99.90
20759;DHT22;10539;53.686;9.158;2022-09-16T03:20:37;12.70;99.90
20759;DHT22;10539;53.686;9.158;2022-09-16T03:26:10;12.70;99.90
20759;DHT22;10539;53.686;9.158;2022-09-16T03:31:53;12.70;99.90
20759;DHT22;10539;53.686;9.158;2022-09-16T03:34:32;12.70;99.90
20759;DHT22;10539;53.686;9.158;2022-09-16T03:37:07;12.70;99.90
20759;DHT22;10539;53.686;9.158;2022-09-16T03:39:33;12.70;99.90
20759;DHT22;10539;53.686;9.158;2022-09-16T03:42:04;12.60;99.90
20759;DHT22;10539;53.686;9.158;2022-09-16T03:44:36;12.60;99.90
20759;DHT22;10539;53.686;9.158;2022-09-16T03:47:04;12.60;99.90
20759;DHT22;10539;53.686;9.158;2022-09-16T03:49:29;12.50;99.90
20759;DHT22;10539;53.686;9.158;2022-09-16T03:51:55;12.50;99.90
20759;DHT22;10539;53.686;9.158;2022-09-16T03:54:21;12.50;99.90
20759;DHT22;10539;53.686;9.158;2022-09-16T03:56:47;12.40;99.90
20759;DHT22;10539;53.686;9.158;2022-09-16T03:59:13;12.40;99.90
20759;DHT22;10539;53.686;9.158;2022-09-16T04:01:38;12.40;99.90
20759;DHT22;10539;53.686;9.158;2022-09-16T04:04:04;12.40;99.90
20759;DHT22;10539;53.686;9.158;2022-09-16T04:06:30;12.40;99.90
20759;DHT22;10539;53.686;9.158;2022-09-16T04:08:55;12.30;99.90
20759;DHT22;10539;53.686;9.158;2022-09-16T04:11:25;12.30;99.90
20759;DHT22;10539;53.686;9.158;2022-09-16T04:13:54;12.30;99.90
20759;DHT22;10539;53.686;9.158;2022-09-16T04:16:20;12.30;99.90
20759;DHT22;10539;53.686;9.158;2022-09-16T04:18:47;12.30;99.90
20759;DHT22;10539;53.686;9.158;2022-09-16T04:21:13;12.30;99.90
20759;DHT22;10539;53.686;9.158;2022-09-16T04:23:39;12.30;99.90
20759;DHT22;10539;53.686;9.158;2022-09-16T04:26:04;12.30;99.90
20759;DHT22;10539;53.686;9.158;2022-09-16T04:28:31;12.40;99.90
20759;DHT22;10539;53.686;9.158;2022-09-16T04:31:08;12.40;99.90
20759;DHT22;10539;53.686;9.158;2022-09-16T04:33:34;12.40;99.90
20759;DHT22;10539;53.686;9.158;2022-09-16T04:36:05;12.40;99.90
20759;DHT22;10539;53.686;9.158;2022-09-16T04:38:31;12.40;99.90
20759;DHT22;10539;53.686;9.158;2022-09-16T04:41:08;12.40;99.90
20759;DHT22;10539;53.686;9.158;2022-09-16T04:43:34;12.40;99.90
20759;DHT22;10539;53.686;9.158;2022-09-16T04:46:00;12.40;99.90
20759;DHT22;10539;53.686;9.158;2022-09-16T04:48:26;12.40;99.90
20759;DHT22;10539;53.686;9.158;2022-09-16T04:50:52;12.40;99.90
20759;DHT22;10539;53.686;9.158;2022-09-16T04:53:19;12.40;99.90
20759;DHT22;10539;53.686;9.158;2022-09-16T04:55:45;12.40;99.90
20759;DHT22;10539;53.686;9.158;2022-09-16T04:58:11;12.30;99.90
20759;DHT22;10539;53.686;9.158;2022-09-16T05:00:37;12.30;99.90
20759;DHT22;10539;53.686;9.158;2022-09-16T05:03:02;12.30;99.90
20759;DHT22;10539;53.686;9.158;2022-09-16T05:05:28;12.20;99.90
20759;DHT22;10539;53.686;9.158;2022-09-16T05:07:54;12.20;99.90
20759;DHT22;10539;53.686;9.158;2022-09-16T05:10:20;12.20;99.90
20759;DHT22;10539;53.686;9.158;2022-09-16T05:12:50;12.20;99.90
20759;DHT22;10539;53.686;9.158;2022-09-16T05:15:16;12.20;99.90
20759;DHT22;10539;53.686;9.158;2022-09-16T05:17:42;12.30;99.90
20759;DHT22;10539;53.686;9.158;2022-09-16T05:20:08;12.30;99.90
20759;DHT22;10539;53.686;9.158;2022-09-16T05:22:33;12.30;99.90
20759;DHT22;10539;53.686;9.158;2022-09-16T05:24:59;12.40;99.90
20759;DHT22;10539;53.686;9.158;2022-09-16T05:27:25;12.40;99.90
20759;DHT22;10539;53.686;9.158;2022-09-16T05:29:54;12.40;99.90
20759;DHT22;10539;53.686;9.158;2022-09-16T05:32:19;12.40;99.90
20759;DHT22;10539;53.686;9.158;2022-09-16T05:34:45;12.40;99.90
20759;DHT22;10539;53.686;9.158;2022-09-16T05:37:11;12.50;99.90
20759;DHT22;10539;53.686;9.158;2022-09-16T05:39:36;12.60;99.90
20759;DHT22;10539;53.686;9.158;2022-09-16T05:42:02;12.60;99.90
20759;DHT22;10539;53.686;9.158;2022-09-16T05:44:29;12.60;99.90
20759;DHT22;10539;53.686;9.158;2022-09-16T05:46:55;12.60;99.90
20759;DHT22;10539;53.686;9.158;2022-09-16T05:49:21;12.60;99.90
20759;DHT22;10539;53.686;9.158;2022-09-16T05:51:48;12.70;99.90
20759;DHT22;10539;53.686;9.158;2022-09-16T05:54:15;12.70;99.90
20759;DHT22;10539;53.686;9.158;2022-09-16T05:56:43;12.70;99.90
20759;DHT22;10539;53.686;9.158;2022-09-16T05:59:10;12.70;99.90
20759;DHT22;10539;53.686;9.158;2022-09-16T06:01:36;12.70;99.90
20759;DHT22;10539;53.686;9.158;2022-09-16T06:04:04;12.70;99.90
20759;DHT22;10539;53.686;9.158;2022-09-16T06:06:32;12.70;99.90
20759;DHT22;10539;53.686;9.158;2022-09-16T06:09:07;12.70;99.90
20759;DHT22;10539;53.686;9.158;2022-09-16T06:11:36;12.70;99.90
20759;DHT22;10539;53.686;9.158;2022-09-16T06:14:03;12.80;99.90
20759;DHT22;10539;53.686;9.158;2022-09-16T06:16:30;12.80;99.90
20759;DHT22;10539;53.686;9.158;2022-09-16T06:19:01;12.90;99.90
20759;DHT22;10539;53.686;9.158;2022-09-16T06:21:28;12.90;99.90
20759;DHT22;10539;53.686;9.158;2022-09-16T06:23:54;13.30;99.90
20759;DHT22;10539;53.686;9.158;2022-09-16T06:26:22;13.80;99.90
20759;DHT22;10539;53.686;9.158;2022-09-16T06:28:49;14.30;99.90
20759;DHT22;10539;53.686;9.158;2022-09-16T06:31:21;14.80;99.90
20759;DHT22;10539;53.686;9.158;2022-09-16T06:33:47;15.20;99.90
20759;DHT22;10539;53.686;9.158;2022-09-16T06:36:17;15.50;99.90
20759;DHT22;10539;53.686;9.158;2022-09-16T06:38:44;15.50;99.90
20759;DHT22;10539;53.686;9.158;2022-09-16T06:41:11;15.60;99.90
20759;DHT22;10539;53.686;9.158;2022-09-16T06:43:37;15.80;99.90
20759;DHT22;10539;53.686;9.158;2022-09-16T06:46:14;15.90;99.90
20759;DHT22;10539;53.686;9.158;2022-09-16T06:48:42;16.10;99.90
20759;DHT22;10539;53.686;9.158;2022-09-16T06:51:13;16.40;99.90
20759;DHT22;10539;53.686;9.158;2022-09-16T06:53:39;16.50;99.90
20759;DHT22;10539;53.686;9.158;2022-09-16T06:56:08;16.60;99.90
20759;DHT22;10539;53.686;9.158;2022-09-16T06:58:36;16.50;99.90
20759;DHT22;10539;53.686;9.158;2022-09-16T07:01:12;16.40;99.90
20759;DHT22;10539;53.686;9.158;2022-09-16T07:03:40;16.30;99.90
20759;DHT22;10539;53.686;9.158;2022-09-16T07:06:07;16.30;99.90
20759;DHT22;10539;53.686;9.158;2022-09-16T07:08:34;16.10;99.90
20759;DHT22;10539;53.686;9.158;2022-09-16T07:11:02;15.90;99.90
20759;DHT22;10539;53.686;9.158;2022-09-16T07:13:28;15.50;99.90
20759;DHT22;10539;53.686;9.158;2022-09-16T07:16:01;15.20;99.90
20759;DHT22;10539;53.686;9.158;2022-09-16T07:18:30;14.90;99.90
20759;DHT22;10539;53.686;9.158;2022-09-16T07:21:16;14.80;99.90
20759;DHT22;10539;53.686;9.158;2022-09-16T07:23:43;14.60;99.90
20759;DHT22;10539;53.686;9.158;2022-09-16T07:26:12;14.50;99.90
20759;DHT22;10539;53.686;9.158;2022-09-16T07:28:39;14.40;99.90
20759;DHT22;10539;53.686;9.158;2022-09-16T07:31:17;14.30;99.90
20759;DHT22;10539;53.686;9.158;2022-09-16T07:33:45;14.40;99.90
20759;DHT22;10539;53.686;9.158;2022-09-16T07:36:15;14.50;99.90
20759;DHT22;10539;53.686;9.158;2022-09-16T07:38:41;14.70;99.90
20759;DHT22;10539;53.686;9.158;2022-09-16T07:41:12;15.00;99.90
20759;DHT22;10539;53.686;9.158;2022-09-16T07:43:40;15.20;99.90
20759;DHT22;10539;53.686;9.158;2022-09-16T07:46:07;15.40;99.90
20759;DHT22;10539;53.686;9.158;2022-09-16T07:48:33;15.60;99.90
20759;DHT22;10539;53.686;9.158;2022-09-16T07:51:11;15.80;99.90
20759;DHT22;10539;53.686;9.158;2022-09-16T07:53:37;16.00;99.90
20759;DHT22;10539;53.686;9.158;2022-09-16T07:56:06;16.00;99.90
20759;DHT22;10539;53.686;9.158;2022-09-16T07:58:32;15.80;99.90
20759;DHT22;10539;53.686;9.158;2022-09-16T08:00:58;15.70;99.90
20759;DHT22;10539;53.686;9.158;2022-09-16T08:03:24;15.50;99.90
20759;DHT22;10539;53.686;9.158;2022-09-16T08:05:50;15.60;99.90
20759;DHT22;10539;53.686;9.158;2022-09-16T08:08:15;15.80;99.90
20759;DHT22;10539;53.686;9.158;2022-09-16T08:10:41;16.00;99.90
20759;DHT22;10539;53.686;9.158;2022-09-16T08:13:08;16.10;99.90
20759;DHT22;10539;53.686;9.158;2022-09-16T08:15:34;16.00;99.90
20759;DHT22;10539;53.686;9.158;2022-09-16T08:18:00;16.00;99.90
20759;DHT22;10539;53.686;9.158;2022-09-16T08:20:26;16.00;99.90
20759;DHT22;10539;53.686;9.158;2022-09-16T08:22:52;15.90;99.90
20759;DHT22;10539;53.686;9.158;2022-09-16T08:25:18;15.80;99.90
20759;DHT22;10539;53.686;9.158;2022-09-16T08:27:44;15.80;99.90
20759;DHT22;10539;53.686;9.158;2022-09-16T08:30:10;15.80;99.90
20759;DHT22;10539;53.686;9.158;2022-09-16T08:32:36;15.80;99.90
20759;DHT22;10539;53.686;9.158;2022-09-16T08:35:02;15.90;99.90
20759;DHT22;10539;53.686;9.158;2022-09-16T08:37:28;15.90;99.90
20759;DHT22;10539;53.686;9.158;2022-09-16T08:39:53;15.90;99.90
20759;DHT22;10539;53.686;9.158;2022-09-16T08:42:35;15.90;99.90
20759;DHT22;10539;53.686;9.158;2022-09-16T08:45:07;16.00;99.90
20759;DHT22;10539;53.686;9.158;2022-09-16T08:47:52;15.90;99.90
20759;DHT22;10539;53.686;9.158;2022-09-16T08:50:31;15.60;99.90
20759;DHT22;10539;53.686;9.158;2022-09-16T08:52:59;15.30;99.90
20759;DHT22;10539;53.686;9.158;2022-09-16T08:55:37;15.10;99.90
20759;DHT22;10539;53.686;9.158;2022-09-16T08:58:14;15.00;99.90
20759;DHT22;10539;53.686;9.158;2022-09-16T09:00:43;14.90;99.90
20759;DHT22;10539;53.686;9.158;2022-09-16T09:05:58;15.10;99.90
20759;DHT22;10539;53.686;9.158;2022-09-16T09:08:38;15.30;99.90
20759;DHT22;10539;53.686;9.158;2022-09-16T09:16:59;15.80;99.90
20759;DHT22;10539;53.686;9.158;2022-09-16T09:30:39;16.20;99.90
20759;DHT22;10539;53.686;9.158;2022-09-16T09:33:35;16.30;99.90
20759;DHT22;10539;53.686;9.158;2022-09-16T09:44:56;16.80;99.90
20759;DHT22;10539;53.686;9.158;2022-09-16T09:47:36;17.00;99.90
20759;DHT22;10539;53.686;9.158;2022-09-16T09:50:29;17.00;99.90
20759;DHT22;10539;53.686;9.158;2022-09-16T09:55:32;17.00;99.90
20759;DHT22;10539;53.686;9.158;2022-09-16T09:58:11;17.00;99.90
20759;DHT22;10539;53.686;9.158;2022-09-16T10:00:39;17.10;99.90
20759;DHT22;10539;53.686;9.158;2022-09-16T10:03:17;17.10;99.90
20759;DHT22;10539;53.686;9.158;2022-09-16T10:05:44;17.30;99.90
20759;DHT22;10539;53.686;9.158;2022-09-16T10:10:55;17.30;99.90
20759;DHT22;10539;53.686;9.158;2022-09-16T10:13:23;17.00;99.90
20759;DHT22;10539;53.686;9.158;2022-09-16T10:15:53;16.80;99.90
20759;DHT22;10539;53.686;9.158;2022-09-16T10:18:28;16.90;99.90
20759;DHT22;10539;53.686;9.158;2022-09-16T10:21:09;17.00;99.90
20759;DHT22;10539;53.686;9.158;2022-09-16T10:23:35;17.20;99.90
20759;DHT22;10539;53.686;9.158;2022-09-16T10:26:19;17.20;99.90
20759;DHT22;10539;53.686;9.158;2022-09-16T10:29:01;17.10;99.90
20759;DHT22;10539;53.686;9.158;2022-09-16T10:31:44;16.90;99.90
20759;DHT22;10539;53.686;9.158;2022-09-16T10:34:33;16.70;99.90
20759;DHT22;10539;53.686;9.158;2022-09-16T10:39:32;16.40;99.90
20759;DHT22;10539;53.686;9.158;2022-09-16T10:41:58;16.40;99.90
20759;DHT22;10539;53.686;9.158;2022-09-16T10:44:28;16.50;99.90
20759;DHT22;10539;53.686;9.158;2022-09-16T10:46:58;16.60;99.90
20759;DHT22;10539;53.686;9.158;2022-09-16T10:49:38;16.80;99.90
20759;DHT22;10539;53.686;9.158;2022-09-16T10:52:13;17.00;99.90
20759;DHT22;10539;53.686;9.158;2022-09-16T10:54:39;17.00;99.90
20759;DHT22;10539;53.686;9.158;2022-09-16T10:57:24;17.00;99.90
20759;DHT22;10539;53.686;9.158;2022-09-16T11:08:05;16.80;99.90
20759;DHT22;10539;53.686;9.158;2022-09-16T11:10:44;16.90;99.90
20759;DHT22;10539;53.686;9.158;2022-09-16T11:24:34;17.50;99.90
20759;DHT22;10539;53.686;9.158;2022-09-16T11:27:29;17.70;99.90
20759;DHT22;10539;53.686;9.158;2022-09-16T11:30:12;17.70;99.90
20759;DHT22;10539;53.686;9.158;2022-09-16T11:35:31;17.00;99.90
20759;DHT22;10539;53.686;9.158;2022-09-16T11:38:05;16.50;99.90
20759;DHT22;10539;53.686;9.158;2022-09-16T11:40:51;16.30;99.90
20759;DHT22;10539;53.686;9.158;2022-09-16T11:43:46;16.20;99.90
20759;DHT22;10539;53.686;9.158;2022-09-16T11:46:21;16.00;99.90
20759;DHT22;10539;53.686;9.158;2022-09-16T11:57:14;15.80;99.90
20759;DHT22;10539;53.686;9.158;2022-09-16T12:02:24;16.10;99.90
20759;DHT22;10539;53.686;9.158;2022-09-16T12:05:03;16.20;99.90
20759;DHT22;10539;53.686;9.158;2022-09-16T12:07:38;16.20;99.90
20759;DHT22;10539;53.686;9.158;2022-09-16T12:10:37;16.20;99.90
20759;DHT22;10539;53.686;9.158;2022-09-16T12:13:06;16.00;99.90
20759;DHT22;10539;53.686;9.158;2022-09-16T12:16:01;15.60;99.90
20759;DHT22;10539;53.686;9.158;2022-09-16T12:21:20;15.00;99.90
20759;DHT22;10539;53.686;9.158;2022-09-16T12:24:00;15.00;99.90
20759;DHT22;10539;53.686;9.158;2022-09-16T12:26:31;14.90;99.90
20759;DHT22;10539;53.686;9.158;2022-09-16T12:31:44;14.90;99.90
20759;DHT22;10539;53.686;9.158;2022-09-16T12:34:13;14.80;99.90
20759;DHT22;10539;53.686;9.158;2022-09-16T12:36:45;14.80;99.90
20759;DHT22;10539;53.686;9.158;2022-09-16T12:39:12;14.80;99.90
20759;DHT22;10539;53.686;9.158;2022-09-16T12:41:42;14.80;99.90
20759;DHT22;10539;53.686;9.158;2022-09-16T12:44:27;14.70;99.90
20759;DHT22;10539;53.686;9.158;2022-09-16T12:55:24;14.40;99.90
20759;DHT22;10539;53.686;9.158;2022-09-16T12:58:16;14.30;99.90
20759;DHT22;10539;53.686;9.158;2022-09-16T13:03:57;13.90;99.90
20759;DHT22;10539;53.686;9.158;2022-09-16T13:06:28;13.70;99.90
20759;DHT22;10539;53.686;9.158;2022-09-16T13:08:55;13.60;99.90
20759;DHT22;10539;53.686;9.158;2022-09-16T13:11:26;13.50;99.90
20759;DHT22;10539;53.686;9.158;2022-09-16T13:13:56;13.40;99.90
20759;DHT22;10539;53.686;9.158;2022-09-16T13:16:29;13.30;99.90
20759;DHT22;10539;53.686;9.158;2022-09-16T13:19:07;13.20;99.90
20759;DHT22;10539;53.686;9.158;2022-09-16T13:21:43;13.10;99.90
20759;DHT22;10539;53.686;9.158;2022-09-16T13:24:42;13.10;99.90
20759;DHT22;10539;53.686;9.158;2022-09-16T13:27:51;13.10;99.90
20759;DHT22;10539;53.686;9.158;2022-09-16T13:30:28;13.00;99.90
20759;DHT22;10539;53.686;9.158;2022-09-16T13:35:33;12.70;99.90
20759;DHT22;10539;53.686;9.158;2022-09-16T13:38:55;12.70;99.90
20759;DHT22;10539;53.686;9.158;2022-09-16T13:41:00;12.60;99.90
20759;DHT22;10539;53.686;9.158;2022-09-16T13:43:36;12.50;99.90
20759;DHT22;10539;53.686;9.158;2022-09-16T13:46:26;12.50;99.90
20759;DHT22;10539;53.686;9.158;2022-09-16T13:49:09;12.50;99.90
20759;DHT22;10539;53.686;9.158;2022-09-16T13:51:41;12.50;99.90
20759;DHT22;10539;53.686;9.158;2022-09-16T13:54:42;12.50;99.90
20759;DHT22;10539;53.686;9.158;2022-09-16T14:05:36;12.60;99.90
20759;DHT22;10539;53.686;9.158;2022-09-16T14:09:15;12.60;99.90
20759;DHT22;10539;53.686;9.158;2022-09-16T14:13:55;12.60;99.90
20759;DHT22;10539;53.686;9.158;2022-09-16T14:16:24;12.70;99.90
20759;DHT22;10539;53.686;9.158;2022-09-16T14:18:59;12.70;99.90
20759;DHT22;10539;53.686;9.158;2022-09-16T14:21:27;12.70;99.90
20759;DHT22;10539;53.686;9.158;2022-09-16T14:23:52;12.80;99.90
20759;DHT22;10539;53.686;9.158;2022-09-16T14:26:21;12.80;99.90
20759;DHT22;10539;53.686;9.158;2022-09-16T14:28:48;12.90;99.90
20759;DHT22;10539;53.686;9.158;2022-09-16T14:31:18;12.90;99.90
20759;DHT22;10539;53.686;9.158;2022-09-16T14:33:51;13.00;99.90
20759;DHT22;10539;53.686;9.158;2022-09-16T14:36:24;13.10;99.90
20759;DHT22;10539;53.686;9.158;2022-09-16T14:38:56;13.20;99.90
20759;DHT22;10539;53.686;9.158;2022-09-16T14:41:29;13.30;99.90
20759;DHT22;10539;53.686;9.158;2022-09-16T14:44:48;13.40;99.90
20759;DHT22;10539;53.686;9.158;2022-09-16T14:46:54;13.50;99.90
20759;DHT22;10539;53.686;9.158;2022-09-16T14:49:21;13.60;99.90
20759;DHT22;10539;53.686;9.158;2022-09-16T14:51:55;13.70;99.90
20759;DHT22;10539;53.686;9.158;2022-09-16T14:54:24;13.80;99.90
20759;DHT22;10539;53.686;9.158;2022-09-16T14:57:03;13.90;99.90
20759;DHT22;10539;53.686;9.158;2022-09-16T14:59:35;13.90;99.90
20759;DHT22;10539;53.686;9.158;2022-09-16T15:02:16;14.00;99.90
20759;DHT22;10539;53.686;9.158;2022-09-16T15:04:56;14.00;99.90
20759;DHT22;10539;53.686;9.158;2022-09-16T15:07:26;14.10;99.90
20759;DHT22;10539;53.686;9.158;2022-09-16T15:12:48;14.20;99.90
20759;DHT22;10539;53.686;9.158;2022-09-16T15:15:34;14.30;99.90
20759;DHT22;10539;53.686;9.158;2022-09-16T15:18:21;14.40;99.90
20759;DHT22;10539;53.686;9.158;2022-09-16T15:23:36;14.40;99.90
20759;DHT22;10539;53.686;9.158;2022-09-16T15:26:10;14.30;99.90
20759;DHT22;10539;53.686;9.158;2022-09-16T15:28:51;14.20;99.90
20759;DHT22;10539;53.686;9.158;2022-09-16T15:33:57;14.30;99.90
20759;DHT22;10539;53.686;9.158;2022-09-16T15:36:35;14.30;99.90
20759;DHT22;10539;53.686;9.158;2022-09-16T15:39:01;14.30;99.90
20759;DHT22;10539;53.686;9.158;2022-09-16T15:41:27;14.30;99.90
20759;DHT22;10539;53.686;9.158;2022-09-16T15:43:53;14.40;99.90
20759;DHT22;10539;53.686;9.158;2022-09-16T15:46:21;14.40;99.90
20759;DHT22;10539;53.686;9.158;2022-09-16T15:48:58;14.40;99.90
20759;DHT22;10539;53.686;9.158;2022-09-16T15:51:45;14.40;99.90
20759;DHT22;10539;53.686;9.158;2022-09-16T15:54:35;14.50;99.90
20759;DHT22;10539;53.686;9.158;2022-09-16T15:57:10;14.50;99.90
20759;DHT22;10539;53.686;9.158;2022-09-16T15:59:54;14.60;99.90
20759;DHT22;10539;53.686;9.158;2022-09-16T16:02:31;14.60;99.90
20759;DHT22;10539;53.686;9.158;2022-09-16T16:05:27;14.60;99.90
20759;DHT22;10539;53.686;9.158;2022-09-16T16:07:59;14.70;99.90
20759;DHT22;10539;53.686;9.158;2022-09-16T16:10:30;14.70;99.90
20759;DHT22;10539;53.686;9.158;2022-09-16T16:12:59;14.60;99.90
20759;DHT22;10539;53.686;9.158;2022-09-16T16:15:33;14.60;99.90
20759;DHT22;10539;53.686;9.158;2022-09-16T16:18:06;14.60;99.90
20759;DHT22;10539;53.686;9.158;2022-09-16T16:20:34;14.60;99.90
20759;DHT22;10539;53.686;9.158;2022-09-16T16:23:01;14.60;99.90
20759;DHT22;10539;53.686;9.158;2022-09-16T16:25:27;14.60;99.90
20759;DHT22;10539;53.686;9.158;2022-09-16T16:27:53;14.60;99.90
20759;DHT22;10539;53.686;9.158;2022-09-16T16:30:19;14.60;99.90
20759;DHT22;10539;53.686;9.158;2022-09-16T16:32:45;14.60;99.90
20759;DHT22;10539;53.686;9.158;2022-09-16T16:35:11;14.60;99.90
20759;DHT22;10539;53.686;9.158;2022-09-16T16:37:37;14.60;99.90
20759;DHT22;10539;53.686;9.158;2022-09-16T16:40:04;14.60;99.90
20759;DHT22;10539;53.686;9.158;2022-09-16T16:42:30;14.60;99.90
20759;DHT22;10539;53.686;9.158;2022-09-16T16:44:56;14.60;99.90
20759;DHT22;10539;53.686;9.158;2022-09-16T16:47:22;14.60;99.90
20759;DHT22;10539;53.686;9.158;2022-09-16T16:49:48;14.60;99.90
20759;DHT22;10539;53.686;9.158;2022-09-16T16:52:15;14.60;99.90
20759;DHT22;10539;53.686;9.158;2022-09-16T16:54:40;14.70;99.90
20759;DHT22;10539;53.686;9.158;2022-09-16T16:57:08;14.70;99.90
20759;DHT22;10539;53.686;9.158;2022-09-16T16:59:34;14.70;99.90
20759;DHT22;10539;53.686;9.158;2022-09-16T17:01:59;14.60;99.90
20759;DHT22;10539;53.686;9.158;2022-09-16T17:04:25;14.60;99.90
20759;DHT22;10539;53.686;9.158;2022-09-16T17:06:51;14.60;99.90
20759;DHT22;10539;53.686;9.158;2022-09-16T17:09:17;14.60;99.90
20759;DHT22;10539;53.686;9.158;2022-09-16T17:11:52;14.60;99.90
20759;DHT22;10539;53.686;9.158;2022-09-16T17:14:18;14.70;99.90
20759;DHT22;10539;53.686;9.158;2022-09-16T17:16:44;14.70;99.90
20759;DHT22;10539;53.686;9.158;2022-09-16T17:19:11;14.70;99.90
20759;DHT22;10539;53.686;9.158;2022-09-16T17:21:38;14.70;99.90
20759;DHT22;10539;53.686;9.158;2022-09-16T17:24:05;14.70;99.90
20759;DHT22;10539;53.686;9.158;2022-09-16T17:26:32;14.60;99.90
20759;DHT22;10539;53.686;9.158;2022-09-16T17:28:58;14.60;99.90
20759;DHT22;10539;53.686;9.158;2022-09-16T17:31:29;14.60;99.90
20759;DHT22;10539;53.686;9.158;2022-09-16T17:34:03;14.60;99.90
20759;DHT22;10539;53.686;9.158;2022-09-16T17:36:31;14.60;99.90
20759;DHT22;10539;53.686;9.158;2022-09-16T17:39:03;14.60;99.90
20759;DHT22;10539;53.686;9.158;2022-09-16T17:41:29;14.60;99.90
20759;DHT22;10539;53.686;9.158;2022-09-16T17:43:56;14.50;99.90
20759;DHT22;10539;53.686;9.158;2022-09-16T17:46:23;14.50;99.90
20759;DHT22;10539;53.686;9.158;2022-09-16T17:49:01;14.40;99.90
20759;DHT22;10539;53.686;9.158;2022-09-16T17:51:29;14.40;99.90
20759;DHT22;10539;53.686;9.158;2022-09-16T17:53:55;14.40;99.90
20759;DHT22;10539;53.686;9.158;2022-09-16T17:56:21;14.40;99.90
20759;DHT22;10539;53.686;9.158;2022-09-16T17:58:47;14.30;99.90
20759;DHT22;10539;53.686;9.158;2022-09-16T18:01:20;14.30;99.90
20759;DHT22;10539;53.686;9.158;2022-09-16T18:03:51;14.30;99.90
20759;DHT22;10539;53.686;9.158;2022-09-16T18:06:32;14.30;99.90
20759;DHT22;10539;53.686;9.158;2022-09-16T18:09:02;14.40;99.90
20759;DHT22;10539;53.686;9.158;2022-09-16T18:11:28;14.40;99.90
20759;DHT22;10539;53.686;9.158;2022-09-16T18:13:59;14.50;99.90
20759;DHT22;10539;53.686;9.158;2022-09-16T18:16:26;14.50;99.90
20759;DHT22;10539;53.686;9.158;2022-09-16T18:18:55;14.50;99.90
20759;DHT22;10539;53.686;9.158;2022-09-16T18:21:22;14.50;99.90
20759;DHT22;10539;53.686;9.158;2022-09-16T18:23:52;14.60;99.90
20759;DHT22;10539;53.686;9.158;2022-09-16T18:26:18;14.60;99.90